createdAt,value
2023-05-04T00:01:01.352Z,1.77
2023-05-04T00:03:27.296Z,1.63
2023-05-04T00:05:53.139Z,1.88
2023-05-04T00:08:18.983Z,1.80
2023-05-04T00:10:44.831Z,1.75
2023-05-04T00:13:11.235Z,1.83
2023-05-04T00:15:37.154Z,1.83
2023-05-04T00:18:03.091Z,1.90
2023-05-04T00:20:28.878Z,1.88
2023-05-04T00:22:54.849Z,1.98
2023-05-04T00:25:20.735Z,2.08
2023-05-04T00:27:46.559Z,1.58
2023-05-04T00:30:12.652Z,2.05
2023-05-04T00:32:38.513Z,1.95
2023-05-04T00:35:04.702Z,1.92
2023-05-04T00:37:30.523Z,1.90
2023-05-04T00:39:56.328Z,1.60
2023-05-04T00:42:22.164Z,1.95
2023-05-04T00:44:47.974Z,2.08
2023-05-04T00:47:16.085Z,1.60
2023-05-04T00:49:41.950Z,1.90
2023-05-04T00:52:09.784Z,1.88
2023-05-04T00:54:35.720Z,2.50
2023-05-04T00:57:02.810Z,1.60
2023-05-04T00:59:28.570Z,2.25
2023-05-04T01:01:54.532Z,1.30
2023-05-04T01:04:20.905Z,2.05
2023-05-04T01:07:20.231Z,2.15
2023-05-04T01:09:57.554Z,2.00
2023-05-04T01:12:37.160Z,1.73
2023-05-04T01:15:03.511Z,1.75
2023-05-04T01:17:29.455Z,1.55
2023-05-04T01:19:55.241Z,1.70
2023-05-04T01:22:21.489Z,2.45
2023-05-04T01:24:47.437Z,1.88
2023-05-04T01:27:23.727Z,2.15
2023-05-04T01:29:57.869Z,2.00
2023-05-04T01:32:29.539Z,1.77
2023-05-04T01:34:56.028Z,2.13
2023-05-04T01:37:21.994Z,1.80
2023-05-04T01:39:47.832Z,1.65
2023-05-04T01:42:13.622Z,2.20
2023-05-04T01:44:39.914Z,1.83
2023-05-04T01:47:05.852Z,1.88
2023-05-04T01:49:31.629Z,2.08
2023-05-04T01:51:57.452Z,1.70
2023-05-04T01:54:23.228Z,2.08
2023-05-04T01:56:49.071Z,2.05
2023-05-04T01:59:15.170Z,2.20
2023-05-04T02:01:41.199Z,1.85
2023-05-04T02:04:07.517Z,2.05
2023-05-04T02:06:33.424Z,2.60
2023-05-04T02:08:59.406Z,2.03
2023-05-04T02:11:25.313Z,1.80
2023-05-04T02:13:51.109Z,1.95
2023-05-04T02:16:16.959Z,2.42
2023-05-04T02:18:42.855Z,2.50
2023-05-04T02:21:08.725Z,2.20
2023-05-04T02:23:37.243Z,2.00
2023-05-04T02:26:03.094Z,1.85
2023-05-04T02:28:29.009Z,2.03
2023-05-04T02:30:54.774Z,1.80
2023-05-04T02:33:20.978Z,2.05
2023-05-04T02:35:46.792Z,2.30
2023-05-04T02:38:12.638Z,2.55
2023-05-04T02:40:38.388Z,2.08
2023-05-04T02:43:04.175Z,2.70
2023-05-04T02:45:30.051Z,2.20
2023-05-04T02:47:55.979Z,2.55
2023-05-04T02:50:21.820Z,1.88
2023-05-04T02:52:47.643Z,2.13
2023-05-04T02:55:13.508Z,2.20
2023-05-04T02:57:39.333Z,1.90
2023-05-04T03:00:06.306Z,2.10
2023-05-04T03:02:32.606Z,1.88
2023-05-04T03:04:58.440Z,2.17
2023-05-04T03:07:24.865Z,2.40
2023-05-04T03:09:50.682Z,2.38
2023-05-04T03:12:16.498Z,2.63
2023-05-04T03:17:08.467Z,2.50
2023-05-04T03:19:34.339Z,2.60
2023-05-04T03:22:00.154Z,2.78
2023-05-04T03:24:26.064Z,2.28
2023-05-04T03:26:51.894Z,2.33
2023-05-04T03:29:17.730Z,2.50
2023-05-04T03:31:43.637Z,2.42
2023-05-04T03:34:11.741Z,2.30
2023-05-04T03:36:38.046Z,2.78
2023-05-04T03:39:03.901Z,2.80
2023-05-04T03:41:29.639Z,2.70
2023-05-04T03:43:55.474Z,2.80
2023-05-04T03:46:21.415Z,2.28
2023-05-04T03:48:47.188Z,2.30
2023-05-04T03:51:13.106Z,2.72
2023-05-04T03:53:38.948Z,2.88
2023-05-04T03:56:05.034Z,2.20
2023-05-04T03:58:30.928Z,2.67
2023-05-04T04:00:56.692Z,2.50
2023-05-04T04:03:22.764Z,2.55
2023-05-04T04:05:49.271Z,2.40
2023-05-04T04:08:15.051Z,3.00
2023-05-04T04:10:41.435Z,3.13
2023-05-04T04:13:07.234Z,3.60
2023-05-04T04:15:35.354Z,5.07
2023-05-04T04:18:01.387Z,5.63
2023-05-04T04:20:27.295Z,4.70
2023-05-04T04:22:53.278Z,5.13
2023-05-04T04:25:19.183Z,4.75
2023-05-04T04:27:45.030Z,3.00
2023-05-04T04:30:11.509Z,3.45
2023-05-04T04:32:37.512Z,2.63
2023-05-04T04:35:04.095Z,3.05
2023-05-04T04:37:30.006Z,2.80
2023-05-04T04:39:55.781Z,2.78
2023-05-04T04:42:21.584Z,2.45
2023-05-04T04:44:48.741Z,3.05
2023-05-04T04:47:15.938Z,2.67
2023-05-04T04:49:42.621Z,2.45
2023-05-04T04:52:08.393Z,2.33
2023-05-04T04:54:34.718Z,2.58
2023-05-04T04:57:00.642Z,2.80
2023-05-04T04:59:26.408Z,3.10
2023-05-04T05:01:52.151Z,2.60
2023-05-04T05:04:21.751Z,2.97
2023-05-04T05:06:47.957Z,2.90
2023-05-04T05:09:13.791Z,3.35
2023-05-04T05:11:39.735Z,3.05
2023-05-04T05:14:05.824Z,3.17
2023-05-04T05:16:32.081Z,3.15
2023-05-04T05:18:57.997Z,3.10
2023-05-04T05:21:23.816Z,2.72
2023-05-04T05:23:49.652Z,2.80
2023-05-04T05:26:15.516Z,3.38
2023-05-04T05:28:41.299Z,2.70
2023-05-04T05:31:07.185Z,3.00
2023-05-04T05:33:33.069Z,3.63
2023-05-04T05:36:05.377Z,2.92
2023-05-04T05:38:31.953Z,3.05
2023-05-04T05:40:57.918Z,2.53
2023-05-04T05:43:23.727Z,3.00
2023-05-04T05:45:49.476Z,2.78
2023-05-04T05:48:15.458Z,2.70
2023-05-04T05:50:41.359Z,2.47
2023-05-04T05:53:07.245Z,2.65
2023-05-04T05:55:33.180Z,2.33
2023-05-04T05:57:58.964Z,2.35
2023-05-04T06:00:25.391Z,2.60
2023-05-04T06:02:51.909Z,2.10
2023-05-04T06:05:17.882Z,3.03
2023-05-04T06:07:43.734Z,3.05
2023-05-04T06:10:10.176Z,2.42
2023-05-04T06:12:36.096Z,3.30
2023-05-04T06:15:01.951Z,2.67
2023-05-04T06:17:27.849Z,2.70
2023-05-04T06:19:53.722Z,2.40
2023-05-04T06:22:19.581Z,2.85
2023-05-04T06:24:45.783Z,2.88
2023-05-04T06:27:11.703Z,2.85
2023-05-04T06:29:40.700Z,2.88
2023-05-04T06:32:09.331Z,2.72
2023-05-04T06:34:35.327Z,3.22
2023-05-04T06:37:01.133Z,2.67
2023-05-04T06:39:26.986Z,2.47
2023-05-04T06:41:54.750Z,2.70
2023-05-04T06:44:21.574Z,2.70
2023-05-04T06:46:47.550Z,2.60
2023-05-04T06:49:13.350Z,2.95
2023-05-04T06:51:39.296Z,3.25
2023-05-04T06:54:05.566Z,3.20
2023-05-04T06:56:31.704Z,2.88
2023-05-04T06:58:57.912Z,2.58
2023-05-04T07:01:23.834Z,2.70
2023-05-04T07:03:49.859Z,2.50
2023-05-04T07:06:15.737Z,2.25
2023-05-04T07:08:41.799Z,2.70
2023-05-04T07:11:08.535Z,2.47
2023-05-04T07:13:34.314Z,2.67
2023-05-04T07:16:00.270Z,4.70
2023-05-04T07:18:26.149Z,2.88
2023-05-04T07:20:53.030Z,2.90
2023-05-04T07:23:22.073Z,3.17
2023-05-04T07:25:52.367Z,3.45
2023-05-04T07:28:19.394Z,3.80
2023-05-04T07:30:45.261Z,3.55
2023-05-04T07:33:11.222Z,3.83
2023-05-04T07:35:37.059Z,3.80
2023-05-04T07:38:02.910Z,4.25
2023-05-04T07:40:28.778Z,4.40
2023-05-04T07:42:55.602Z,3.90
2023-05-04T07:45:21.387Z,4.18
2023-05-04T07:47:47.241Z,4.10
2023-05-04T07:50:13.636Z,4.53
2023-05-04T07:52:39.426Z,3.92
2023-05-04T07:55:06.100Z,4.40
2023-05-04T07:57:32.807Z,3.78
2023-05-04T07:59:58.708Z,4.18
2023-05-04T08:02:24.918Z,3.55
2023-05-04T08:04:50.848Z,4.05
2023-05-04T08:07:16.966Z,3.72
2023-05-04T08:09:42.788Z,3.53
2023-05-04T08:12:08.512Z,3.88
2023-05-04T08:14:35.260Z,3.60
2023-05-04T08:17:02.310Z,3.50
2023-05-04T08:19:28.235Z,3.47
2023-05-04T08:21:54.063Z,3.33
2023-05-04T08:24:19.949Z,3.83
2023-05-04T08:26:55.654Z,4.50
2023-05-04T08:29:25.938Z,4.10
2023-05-04T08:31:53.944Z,3.92
2023-05-04T08:34:19.787Z,3.95
2023-05-04T08:36:46.361Z,3.78
2023-05-04T08:39:12.645Z,3.63
2023-05-04T08:41:40.144Z,4.03
2023-05-04T08:44:08.792Z,3.17
2023-05-04T08:46:35.571Z,3.58
2023-05-04T08:49:01.433Z,3.95
2023-05-04T08:51:28.080Z,3.90
2023-05-04T08:53:54.979Z,3.28
2023-05-04T08:56:22.182Z,3.90
2023-05-04T08:58:50.615Z,3.10
2023-05-04T09:01:18.476Z,3.33
2023-05-04T09:03:46.621Z,3.55
2023-05-04T09:06:13.520Z,3.58
2023-05-04T09:08:40.481Z,3.65
2023-05-04T09:11:06.408Z,3.38
2023-05-04T09:13:33.292Z,3.92
2023-05-04T09:15:59.301Z,3.72
2023-05-04T09:18:42.261Z,3.53
2023-05-04T09:21:08.660Z,4.20
2023-05-04T09:23:52.889Z,3.80
2023-05-04T09:26:32.070Z,3.83
2023-05-04T09:29:12.695Z,3.80
2023-05-04T09:31:46.554Z,3.53
2023-05-04T09:34:14.201Z,3.42
2023-05-04T09:36:41.406Z,3.75
2023-05-04T09:39:11.416Z,3.65
2023-05-04T09:41:37.462Z,3.08
2023-05-04T09:44:03.920Z,2.58
2023-05-04T09:46:30.168Z,2.90
2023-05-04T09:48:56.943Z,3.72
2023-05-04T09:51:25.724Z,3.50
2023-05-04T09:53:53.130Z,2.92
2023-05-04T09:56:40.429Z,2.90
2023-05-04T09:59:09.364Z,2.92
2023-05-04T10:01:35.874Z,2.58
2023-05-04T10:04:03.275Z,2.85
2023-05-04T10:06:29.621Z,2.50
2023-05-04T10:08:56.024Z,2.83
2023-05-04T10:11:25.019Z,2.50
2023-05-04T10:13:51.331Z,2.83
2023-05-04T10:16:40.728Z,2.35
2023-05-04T10:19:37.246Z,2.58
2023-05-04T10:22:17.650Z,2.85
2023-05-04T10:25:02.018Z,2.70
2023-05-04T10:27:43.271Z,2.47
2023-05-04T10:30:11.415Z,2.20
2023-05-04T10:32:39.208Z,2.10
2023-05-04T10:35:07.079Z,2.30
2023-05-04T10:37:33.325Z,2.50
2023-05-04T10:39:59.170Z,2.00
2023-05-04T10:42:25.045Z,1.90
2023-05-04T10:44:54.420Z,2.15
2023-05-04T10:47:56.571Z,2.20
2023-05-04T10:50:22.372Z,1.75
2023-05-04T10:52:56.366Z,1.83
2023-05-04T10:57:58.319Z,2.00
2023-05-04T11:00:38.129Z,2.20
2023-05-04T11:03:06.613Z,2.03
2023-05-04T11:05:53.796Z,2.28
2023-05-04T11:08:21.609Z,2.00
2023-05-04T11:10:48.973Z,2.00
2023-05-04T11:13:18.297Z,1.77
2023-05-04T11:15:53.555Z,1.98
2023-05-04T11:20:52.178Z,2.22
2023-05-04T11:23:18.069Z,1.73
2023-05-04T11:25:43.989Z,1.75
2023-05-04T11:28:09.777Z,1.50
2023-05-04T11:30:41.539Z,1.88
2023-05-04T11:33:12.882Z,1.92
2023-05-04T11:35:39.624Z,1.67
2023-05-04T11:38:06.876Z,2.03
2023-05-04T11:40:33.092Z,2.08
2023-05-04T11:42:59.658Z,1.33
2023-05-04T11:45:31.747Z,1.60
2023-05-04T11:47:58.790Z,1.60
2023-05-04T11:50:26.171Z,2.05
2023-05-04T11:53:09.935Z,1.30
2023-05-04T11:55:39.327Z,1.42
2023-05-04T11:58:10.195Z,1.60
2023-05-04T12:00:40.122Z,1.50
2023-05-04T12:03:08.529Z,1.90
2023-05-04T12:05:35.649Z,1.73
2023-05-04T12:08:02.738Z,1.45
2023-05-04T12:10:30.608Z,1.67
2023-05-04T12:12:56.705Z,1.40
2023-05-04T12:15:35.851Z,1.45
2023-05-04T12:18:03.252Z,1.38
2023-05-04T12:20:32.798Z,1.20
2023-05-04T12:23:05.259Z,1.10
2023-05-04T12:25:31.089Z,0.88
2023-05-04T12:27:57.114Z,1.17
2023-05-04T12:30:22.924Z,1.20
2023-05-04T12:32:48.779Z,1.02
2023-05-04T12:35:14.749Z,1.17
2023-05-04T12:37:41.397Z,1.55
2023-05-04T12:40:20.881Z,1.27
2023-05-04T12:42:53.965Z,1.20
2023-05-04T12:45:21.829Z,1.58
2023-05-04T12:47:47.648Z,1.30
2023-05-04T12:50:13.544Z,1.00
2023-05-04T12:52:40.244Z,1.23
2023-05-04T12:55:06.813Z,1.20
2023-05-04T12:57:32.811Z,1.08
2023-05-04T12:59:59.956Z,1.48
2023-05-04T13:02:26.259Z,1.23
2023-05-04T13:04:52.128Z,1.40
2023-05-04T13:07:17.901Z,1.30
2023-05-04T13:09:43.722Z,1.42
2023-05-04T13:12:09.518Z,1.15
2023-05-04T13:14:39.255Z,1.00
2023-05-04T13:17:05.840Z,1.20
2023-05-04T13:19:31.710Z,0.90
2023-05-04T13:21:57.492Z,0.93
2023-05-04T13:24:23.430Z,0.93
2023-05-04T13:26:49.365Z,0.90
2023-05-04T13:29:15.283Z,0.98
2023-05-04T13:31:44.999Z,0.90
2023-05-04T13:34:11.118Z,0.93
2023-05-04T13:36:36.902Z,0.85
2023-05-04T13:39:02.750Z,0.80
2023-05-04T13:41:28.593Z,1.33
2023-05-04T13:43:54.442Z,1.00
2023-05-04T13:46:20.898Z,1.25
2023-05-04T13:48:46.807Z,0.93
2023-05-04T13:51:12.614Z,1.10
2023-05-04T13:53:38.433Z,1.08
2023-05-04T13:56:04.985Z,1.10
2023-05-04T13:58:30.871Z,0.90
2023-05-04T14:00:58.418Z,1.10
2023-05-04T14:03:24.333Z,1.42
2023-05-04T14:05:51.063Z,1.17
2023-05-04T14:08:16.905Z,1.00
2023-05-04T14:10:42.759Z,1.00
2023-05-04T14:13:08.764Z,0.82
2023-05-04T14:15:55.407Z,1.00
2023-05-04T14:18:21.318Z,1.30
2023-05-04T14:20:47.817Z,1.20
2023-05-04T14:23:13.724Z,1.10
2023-05-04T14:25:41.480Z,1.13
2023-05-04T14:28:08.126Z,1.23
2023-05-04T14:30:34.054Z,1.00
2023-05-04T14:33:02.857Z,1.00
2023-05-04T14:35:28.739Z,1.13
2023-05-04T14:37:54.721Z,1.40
2023-05-04T14:40:20.860Z,1.42
2023-05-04T14:42:46.748Z,1.10
2023-05-04T14:45:12.834Z,1.40
2023-05-04T14:47:39.032Z,1.40
2023-05-04T14:50:06.323Z,1.00
2023-05-04T14:52:32.300Z,1.40
2023-05-04T14:54:58.104Z,1.92
2023-05-04T14:57:23.974Z,1.33
2023-05-04T14:59:49.792Z,1.60
2023-05-04T15:02:16.732Z,1.75
2023-05-04T15:04:42.626Z,1.30
2023-05-04T15:07:08.744Z,1.88
2023-05-04T15:09:34.844Z,1.38
2023-05-04T15:12:00.956Z,1.52
2023-05-04T15:14:26.774Z,1.30
2023-05-04T15:16:52.733Z,1.63
2023-05-04T15:19:18.561Z,1.75
2023-05-04T15:21:44.420Z,1.60
2023-05-04T15:24:10.350Z,1.75
2023-05-04T15:26:36.194Z,1.40
2023-05-04T15:29:01.986Z,1.30
2023-05-04T15:31:27.876Z,1.50
2023-05-04T15:33:53.643Z,1.52
2023-05-04T15:36:19.477Z,1.50
2023-05-04T15:38:45.269Z,1.50
2023-05-04T15:41:13.027Z,1.73
2023-05-04T15:43:38.824Z,1.85
2023-05-04T15:46:04.646Z,2.15
2023-05-04T15:48:30.615Z,1.60
2023-05-04T15:50:56.461Z,1.70
2023-05-04T15:53:22.375Z,1.70
2023-05-04T15:55:49.596Z,1.92
2023-05-04T15:58:15.512Z,1.92
2023-05-04T16:00:41.446Z,1.52
2023-05-04T16:03:07.964Z,2.17
2023-05-04T16:05:34.154Z,2.03
2023-05-04T16:08:00.454Z,2.08
2023-05-04T16:10:26.301Z,1.67
2023-05-04T16:12:52.450Z,1.90
2023-05-04T16:15:18.669Z,1.90
2023-05-04T16:17:44.460Z,2.08
2023-05-04T16:20:11.042Z,1.88
2023-05-04T16:22:39.677Z,1.55
2023-05-04T16:25:10.833Z,1.90
2023-05-04T16:27:37.369Z,2.10
2023-05-04T16:30:03.541Z,1.83
2023-05-04T16:32:29.478Z,1.88
2023-05-04T16:34:55.288Z,1.77
2023-05-04T16:37:21.141Z,1.95
2023-05-04T16:39:46.941Z,1.92
2023-05-04T16:42:12.938Z,2.20
2023-05-04T16:44:38.813Z,1.90
2023-05-04T16:47:04.724Z,1.80
2023-05-04T16:49:31.559Z,1.80
2023-05-04T16:51:57.405Z,1.95
2023-05-04T16:54:23.360Z,1.80
2023-05-04T16:56:49.662Z,2.15
2023-05-04T16:59:15.891Z,2.00
2023-05-04T17:01:42.807Z,1.90
2023-05-04T17:04:10.071Z,1.65
2023-05-04T17:06:36.854Z,2.30
2023-05-04T17:09:04.079Z,1.90
2023-05-04T17:11:33.763Z,1.70
2023-05-04T17:14:00.575Z,1.92
2023-05-04T17:16:26.538Z,2.05
2023-05-04T17:18:52.482Z,2.10
2023-05-04T17:21:18.373Z,2.05
2023-05-04T17:23:44.206Z,1.80
2023-05-04T17:26:10.143Z,1.98
2023-05-04T17:28:36.298Z,1.60
2023-05-04T17:31:02.300Z,1.85
2023-05-04T17:33:28.478Z,1.90
2023-05-04T17:35:54.277Z,2.15
2023-05-04T17:38:20.121Z,1.85
2023-05-04T17:40:45.984Z,1.80
2023-05-04T17:43:11.822Z,2.03
2023-05-04T17:45:37.714Z,2.28
2023-05-04T17:48:03.830Z,2.13
2023-05-04T17:50:29.996Z,2.08
2023-05-04T17:52:56.291Z,2.05
2023-05-04T17:55:23.958Z,2.08
2023-05-04T17:57:51.185Z,1.95
2023-05-04T18:00:17.373Z,1.90
2023-05-04T18:02:43.814Z,1.88
2023-05-04T18:05:10.282Z,2.00
2023-05-04T18:07:36.216Z,2.10
2023-05-04T18:10:02.847Z,2.25
2023-05-04T18:12:28.767Z,1.92
2023-05-04T18:14:54.708Z,1.98
2023-05-04T18:17:20.692Z,1.83
2023-05-04T18:19:46.541Z,1.95
2023-05-04T18:22:12.455Z,2.35
2023-05-04T18:24:38.516Z,2.08
2023-05-04T18:27:04.635Z,2.25
2023-05-04T18:29:31.462Z,1.80
2023-05-04T18:31:58.943Z,1.80
2023-05-04T18:34:24.833Z,1.88
2023-05-04T18:36:50.760Z,2.22
2023-05-04T18:39:16.820Z,1.92
2023-05-04T18:41:42.829Z,2.08
2023-05-04T18:44:09.418Z,2.08
2023-05-04T18:46:35.541Z,2.22
2023-05-04T18:49:02.033Z,1.75
2023-05-04T18:51:28.010Z,2.05
2023-05-04T18:53:54.017Z,2.22
2023-05-04T18:56:19.904Z,2.13
2023-05-04T18:58:45.851Z,1.90
2023-05-04T19:01:12.829Z,2.13
2023-05-04T19:03:38.856Z,1.90
2023-05-04T19:06:05.008Z,2.17
2023-05-04T19:08:31.164Z,2.17
2023-05-04T19:11:02.262Z,2.38
2023-05-04T19:13:28.603Z,2.10
2023-05-04T19:15:54.862Z,2.30
2023-05-04T19:18:21.599Z,2.30
2023-05-04T19:20:47.834Z,2.20
2023-05-04T19:23:13.932Z,2.00
2023-05-04T19:25:39.936Z,1.98
2023-05-04T19:28:09.356Z,1.80
2023-05-04T19:30:36.689Z,2.08
2023-05-04T19:33:03.472Z,2.58
2023-05-04T19:35:29.644Z,2.28
2023-05-04T19:37:56.552Z,2.13
2023-05-04T19:40:22.841Z,1.90
2023-05-04T19:42:48.900Z,2.40
2023-05-04T19:45:14.926Z,1.83
2023-05-04T19:47:41.076Z,2.50
2023-05-04T19:50:10.934Z,2.35
2023-05-04T19:52:37.810Z,2.22
2023-05-04T19:55:05.512Z,2.15
2023-05-04T19:57:32.244Z,2.10
2023-05-04T19:59:58.789Z,2.40
2023-05-04T20:02:25.420Z,2.30
2023-05-04T20:04:51.617Z,2.40
2023-05-04T20:07:17.606Z,2.78
2023-05-04T20:09:43.650Z,2.05
2023-05-04T20:12:10.632Z,2.28
2023-05-04T20:14:36.997Z,2.92
2023-05-04T20:17:03.334Z,3.05
2023-05-04T20:19:29.316Z,2.25
2023-05-04T20:21:55.296Z,2.28
2023-05-04T20:24:21.677Z,2.05
2023-05-04T20:26:47.661Z,2.35
2023-05-04T20:29:13.644Z,2.30
2023-05-04T20:31:40.693Z,2.20
2023-05-04T20:34:06.788Z,2.45
2023-05-04T20:36:33.088Z,2.03
2023-05-04T20:39:01.752Z,2.15
2023-05-04T20:41:27.941Z,2.65
2023-05-04T20:43:53.889Z,2.17
2023-05-04T20:46:19.730Z,2.08
2023-05-04T20:48:45.709Z,2.25
2023-05-04T20:51:14.520Z,2.20
2023-05-04T20:53:41.264Z,2.50
2023-05-04T20:56:07.357Z,2.38
2023-05-04T20:58:33.210Z,2.35
2023-05-04T21:01:03.382Z,2.63
2023-05-04T21:03:29.550Z,2.55
2023-05-04T21:05:56.350Z,2.55
2023-05-04T21:08:22.230Z,2.22
2023-05-04T21:10:48.323Z,2.75
2023-05-04T21:13:14.272Z,2.17
2023-05-04T21:15:40.510Z,2.53
2023-05-04T21:18:06.821Z,2.60
2023-05-04T21:20:32.701Z,2.30
2023-05-04T21:22:58.502Z,2.08
2023-05-04T21:25:24.328Z,2.58
2023-05-04T21:27:50.474Z,2.42
2023-05-04T21:30:16.419Z,2.33
2023-05-04T21:32:42.217Z,2.42
2023-05-04T21:35:08.271Z,2.80
2023-05-04T21:37:34.118Z,2.70
2023-05-04T21:40:02.231Z,2.38
2023-05-04T21:42:28.605Z,2.17
2023-05-04T21:44:57.789Z,2.85
2023-05-04T21:47:23.916Z,2.50
2023-05-04T21:49:51.598Z,2.40
2023-05-04T21:52:17.421Z,2.20
2023-05-04T21:54:43.459Z,2.45
2023-05-04T21:57:09.229Z,2.20
2023-05-04T21:59:35.148Z,2.47
2023-05-04T22:02:00.939Z,2.22
2023-05-04T22:04:26.911Z,2.17
2023-05-04T22:06:52.722Z,2.70
2023-05-04T22:09:18.756Z,2.53
2023-05-04T22:11:45.933Z,3.08
2023-05-04T22:14:11.864Z,2.80
2023-05-04T22:16:37.649Z,2.58
2023-05-04T22:19:03.519Z,2.70
2023-05-04T22:21:29.375Z,2.13
2023-05-04T22:23:55.204Z,2.60
2023-05-04T22:26:20.960Z,2.83
2023-05-04T22:28:46.773Z,2.70
2023-05-04T22:31:12.724Z,2.60
2023-05-04T22:33:38.537Z,2.38
2023-05-04T22:36:04.606Z,2.78
2023-05-04T22:38:30.395Z,2.22
2023-05-04T22:40:56.139Z,2.53
2023-05-04T22:43:22.020Z,2.67
2023-05-04T22:45:47.826Z,2.58
2023-05-04T22:48:14.269Z,2.53
2023-05-04T22:50:40.799Z,2.28
2023-05-04T22:53:06.740Z,2.38
2023-05-04T22:55:32.613Z,2.42
2023-05-04T22:57:59.077Z,2.22
2023-05-04T23:00:25.340Z,2.17
2023-05-04T23:02:51.211Z,2.30
2023-05-04T23:05:17.315Z,2.08
2023-05-04T23:07:43.235Z,2.08
2023-05-04T23:10:09.665Z,3.03
2023-05-04T23:12:35.678Z,2.33
2023-05-04T23:15:03.602Z,2.45
2023-05-04T23:17:29.420Z,2.05
2023-05-04T23:19:55.380Z,2.30
2023-05-04T23:22:21.146Z,2.65
2023-05-04T23:24:46.927Z,2.25
2023-05-04T23:27:12.741Z,1.92
2023-05-04T23:29:38.574Z,2.45
2023-05-04T23:32:04.904Z,1.90
2023-05-04T23:34:31.264Z,2.33
2023-05-04T23:36:57.041Z,2.30
2023-05-04T23:39:22.845Z,2.03
2023-05-04T23:41:48.925Z,2.00
2023-05-04T23:44:15.687Z,2.00
2023-05-04T23:46:41.475Z,2.72
2023-05-04T23:49:07.223Z,2.08
2023-05-04T23:51:33.147Z,2.03
2023-05-04T23:53:59.018Z,2.47
2023-05-04T23:56:24.816Z,2.13
2023-05-04T23:58:50.646Z,2.15
